Time;durP1;ratioP1;P1;durP2;ratioP2;P2;SDS_P1;SDS_P2;PMS_P1;PMS_P2;Temp;Humidity;BMP_temperature;BMP_pressure;BME280_temperature;BME280_humidity;BME280_pressure;Samples;Min_cycle;Max_cycle;Signal;HPM_P1;HPM_P2
2023/06/02 00:01:00;;;;;;;;;;;25.40;51.20;;;;;;5087467;27;42968;-90
2023/06/02 00:03:32;;;;;;;;;;;25.30;50.60;;;;;;5087165;27;42995;-90
2023/06/02 00:06:09;;;;;;;;;;;25.40;51.00;;;;;;5096393;27;43000;-92
2023/06/02 00:08:38;;;;;;;;;;;25.30;50.90;;;;;;5093342;27;43418;-91
2023/06/02 00:11:04;;;;;;;;;;;25.30;50.90;;;;;;5107365;27;42946;-89
2023/06/02 00:13:30;;;;;;;;;;;25.40;51.00;;;;;;5089739;27;44529;-86
2023/06/02 00:15:55;;;;;;;;;;;25.40;51.00;;;;;;5098626;27;42931;-94
2023/06/02 00:18:22;;;;;;;;;;;25.30;51.00;;;;;;5102739;27;43801;-89
2023/06/02 00:20:47;;;;;;;;;;;25.30;50.60;;;;;;5099400;27;42914;-88
2023/06/02 00:23:13;;;;;;;;;;;25.20;51.10;;;;;;5090958;27;43268;-82
2023/06/02 00:25:39;;;;;;;;;;;25.30;51.20;;;;;;5101104;27;42799;-84
2023/06/02 00:28:05;;;;;;;;;;;25.20;50.70;;;;;;5110668;27;42815;-79
2023/06/02 00:30:31;;;;;;;;;;;25.20;51.20;;;;;;5109562;27;42784;-79
2023/06/02 00:32:56;;;;;;;;;;;25.20;51.20;;;;;;5109652;27;42918;-86
2023/06/02 00:35:22;;;;;;;;;;;25.10;50.70;;;;;;5110727;27;43151;-75
2023/06/02 00:37:48;;;;;;;;;;;25.20;51.00;;;;;;5097354;27;42775;-84
2023/06/02 00:40:13;;;;;;;;;;;25.20;51.50;;;;;;5109911;27;43065;-94
2023/06/02 00:42:39;;;;;;;;;;;25.20;51.30;;;;;;5107761;27;43540;-78
2023/06/02 00:45:05;;;;;;;;;;;25.10;51.30;;;;;;5099384;27;43093;-90
2023/06/02 00:47:30;;;;;;;;;;;25.10;51.20;;;;;;5090573;27;43536;-91
2023/06/02 00:49:57;;;;;;;;;;;25.20;50.90;;;;;;5089003;27;43103;-93
2023/06/02 00:52:22;;;;;;;;;;;25.20;51.30;;;;;;5086737;27;43727;-93
2023/06/02 00:54:48;;;;;;;;;;;25.20;51.20;;;;;;5098547;27;43025;-83
2023/06/02 00:57:13;;;;;;;;;;;25.10;51.10;;;;;;5093930;27;43369;-95
2023/06/02 00:59:39;;;;;;;;;;;25.10;50.70;;;;;;5108039;27;42945;-92
2023/06/02 01:02:05;;;;;;;;;;;25.10;51.10;;;;;;5107258;27;42898;-87
2023/06/02 01:04:31;;;;;;;;;;;25.10;50.30;;;;;;5097898;27;42837;-95
2023/06/02 01:07:00;;;;;;;;;;;25.10;50.20;;;;;;5087358;27;42799;-96
2023/06/02 01:09:27;;;;;;;;;;;25.10;50.00;;;;;;5097636;27;42873;-93
2023/06/02 01:11:52;;;;;;;;;;;25.10;50.50;;;;;;5090244;27;42879;-76
2023/06/02 01:14:18;;;;;;;;;;;25.10;50.40;;;;;;5087123;27;43212;-94
2023/06/02 01:16:44;;;;;;;;;;;25.10;49.80;;;;;;5088378;27;42854;-83
2023/06/02 01:19:14;;;;;;;;;;;25.10;49.90;;;;;;5098333;27;42953;-90
2023/06/02 01:21:42;;;;;;;;;;;25.10;50.10;;;;;;5103876;27;42890;-85
2023/06/02 01:24:07;;;;;;;;;;;25.00;50.10;;;;;;5085753;27;42968;-93
2023/06/02 01:26:35;;;;;;;;;;;25.10;50.60;;;;;;5103439;27;43295;-84
2023/06/02 01:29:01;;;;;;;;;;;25.10;50.60;;;;;;5106379;27;42937;-83
2023/06/02 01:31:29;;;;;;;;;;;25.10;50.60;;;;;;5087254;27;42914;-89
2023/06/02 01:34:15;;;;;;;;;;;25.10;50.60;;;;;;5097980;27;42984;-89
2023/06/02 01:36:41;;;;;;;;;;;25.10;50.10;;;;;;5097424;27;43052;-95
2023/06/02 01:39:08;;;;;;;;;;;25.10;50.60;;;;;;5086446;27;43585;-85
2023/06/02 01:41:35;;;;;;;;;;;25.10;50.20;;;;;;5106799;27;42964;-84
2023/06/02 01:44:02;;;;;;;;;;;25.10;50.20;;;;;;5092524;27;42901;-93
2023/06/02 01:46:28;;;;;;;;;;;25.10;50.30;;;;;;5107355;27;43564;-92
2023/06/02 01:48:54;;;;;;;;;;;25.10;50.30;;;;;;5093780;27;42842;-85
2023/06/02 01:51:19;;;;;;;;;;;25.10;50.70;;;;;;5098510;27;42968;-82
2023/06/02 01:53:45;;;;;;;;;;;25.10;50.30;;;;;;5085996;27;42902;-92
2023/06/02 01:56:11;;;;;;;;;;;25.10;50.30;;;;;;5094215;27;43575;-87
2023/06/02 01:58:37;;;;;;;;;;;25.00;50.80;;;;;;5104664;27;43061;-94
2023/06/02 02:01:02;;;;;;;;;;;25.10;50.90;;;;;;5099138;27;43373;-89
2023/06/02 02:03:30;;;;;;;;;;;25.00;50.30;;;;;;5098170;27;42874;-78
2023/06/02 02:05:56;;;;;;;;;;;25.00;50.70;;;;;;5090624;27;42931;-94
2023/06/02 02:08:21;;;;;;;;;;;25.00;50.50;;;;;;5103700;27;42924;-95
2023/06/02 02:10:47;;;;;;;;;;;25.00;50.50;;;;;;5088770;27;42866;-95
2023/06/02 02:13:13;;;;;;;;;;;25.00;50.80;;;;;;5108735;27;42720;-96
2023/06/02 02:15:38;;;;;;;;;;;25.00;50.70;;;;;;5096430;27;43741;-92
2023/06/02 02:18:04;;;;;;;;;;;25.00;50.60;;;;;;5095704;27;42894;-94
2023/06/02 02:20:30;;;;;;;;;;;25.00;50.50;;;;;;5100432;27;43379;-93
2023/06/02 02:22:55;;;;;;;;;;;25.00;49.80;;;;;;5104897;27;42638;-92
2023/06/02 02:25:20;;;;;;;;;;;25.00;49.60;;;;;;5101498;27;42984;-96
2023/06/02 02:27:46;;;;;;;;;;;25.00;50.10;;;;;;5093509;27;43080;-90
2023/06/02 02:30:12;;;;;;;;;;;25.00;50.10;;;;;;5101304;27;42763;-91
2023/06/02 02:32:44;;;;;;;;;;;25.00;49.50;;;;;;5111474;27;42886;-93
2023/06/02 02:35:10;;;;;;;;;;;25.00;49.50;;;;;;5111307;27;42819;-92
2023/06/02 02:37:36;;;;;;;;;;;25.00;49.40;;;;;;5095935;27;42880;-94
2023/06/02 02:40:02;;;;;;;;;;;25.00;49.30;;;;;;5099682;27;43574;-85
2023/06/02 02:42:28;;;;;;;;;;;24.90;49.30;;;;;;5110762;27;42298;-90
2023/06/02 02:44:53;;;;;;;;;;;25.00;49.90;;;;;;5122894;27;42791;-91
2023/06/02 02:47:20;;;;;;;;;;;25.00;50.00;;;;;;5123421;27;42450;-91
2023/06/02 02:49:46;;;;;;;;;;;24.90;49.40;;;;;;5113872;27;42687;-87
2023/06/02 02:52:12;;;;;;;;;;;24.90;49.40;;;;;;5101699;27;42736;-95
2023/06/02 02:54:38;;;;;;;;;;;24.90;49.50;;;;;;5117212;27;42921;-90
2023/06/02 02:57:04;;;;;;;;;;;24.90;49.90;;;;;;5118047;27;42835;-84
2023/06/02 02:59:31;;;;;;;;;;;24.90;49.30;;;;;;5106941;27;42937;-92
2023/06/02 03:01:57;;;;;;;;;;;24.90;49.80;;;;;;5119774;27;42808;-75
2023/06/02 03:04:22;;;;;;;;;;;24.90;49.70;;;;;;5116949;27;43536;-88
2023/06/02 03:06:49;;;;;;;;;;;24.90;49.40;;;;;;5115287;27;42909;-93
2023/06/02 03:09:16;;;;;;;;;;;24.90;49.40;;;;;;5118812;27;43689;-80
2023/06/02 03:11:42;;;;;;;;;;;24.90;49.50;;;;;;5105187;27;43197;-91
2023/06/02 03:14:08;;;;;;;;;;;24.90;49.50;;;;;;5106356;27;43247;-87
2023/06/02 03:16:34;;;;;;;;;;;24.90;49.60;;;;;;5100219;27;43693;-85
2023/06/02 03:19:02;;;;;;;;;;;24.90;49.60;;;;;;5080358;27;42839;-91
2023/06/02 03:21:31;;;;;;;;;;;24.90;49.70;;;;;;5108520;27;43002;-85
2023/06/02 03:24:00;;;;;;;;;;;24.90;50.20;;;;;;5100033;27;42746;-93
2023/06/02 03:26:26;;;;;;;;;;;24.90;50.20;;;;;;5095301;27;42772;-81
2023/06/02 03:28:52;;;;;;;;;;;24.90;50.20;;;;;;5094700;27;42906;-90
2023/06/02 03:31:18;;;;;;;;;;;24.80;49.70;;;;;;5104919;27;42563;-83
2023/06/02 03:33:46;;;;;;;;;;;24.90;50.20;;;;;;5103949;27;63626;-88
2023/06/02 03:36:12;;;;;;;;;;;24.90;50.20;;;;;;5109094;27;42868;-83
2023/06/02 03:38:37;;;;;;;;;;;24.80;50.20;;;;;;5072767;28;42978;-81
2023/06/02 03:41:03;;;;;;;;;;;24.90;49.80;;;;;;5092165;27;43001;-80
2023/06/02 03:43:29;;;;;;;;;;;24.80;50.20;;;;;;5091982;27;43127;-88
2023/06/02 03:45:54;;;;;;;;;;;24.80;49.80;;;;;;5091476;27;43078;-86
2023/06/02 03:48:20;;;;;;;;;;;24.80;49.80;;;;;;5091547;27;43900;-87
2023/06/02 03:50:46;;;;;;;;;;;24.80;50.20;;;;;;5091568;27;42974;-85
2023/06/02 03:53:11;;;;;;;;;;;24.70;49.70;;;;;;5098167;27;43149;-91
2023/06/02 03:55:37;;;;;;;;;;;24.80;50.30;;;;;;5104816;27;43050;-83
2023/06/02 03:58:02;;;;;;;;;;;24.70;50.20;;;;;;5088018;27;43401;-94
2023/06/02 04:00:28;;;;;;;;;;;24.70;50.30;;;;;;5105672;27;42942;-95
2023/06/02 04:02:55;;;;;;;;;;;24.80;49.90;;;;;;5108391;27;42758;-85
2023/06/02 04:05:20;;;;;;;;;;;24.80;50.40;;;;;;5094192;27;42820;-92
2023/06/02 04:07:46;;;;;;;;;;;24.70;49.90;;;;;;5108029;27;42937;-90
2023/06/02 04:10:12;;;;;;;;;;;24.70;50.40;;;;;;5104449;27;42755;-95
2023/06/02 04:12:37;;;;;;;;;;;24.70;49.90;;;;;;5087106;27;42989;-93
2023/06/02 04:15:03;;;;;;;;;;;24.70;50.00;;;;;;5091527;27;42818;-96
2023/06/02 04:17:29;;;;;;;;;;;24.80;50.60;;;;;;5090474;27;45067;-83
2023/06/02 04:19:55;;;;;;;;;;;24.70;50.60;;;;;;5107067;27;42771;-92
2023/06/02 04:22:21;;;;;;;;;;;24.70;50.20;;;;;;5103456;27;42628;-89
2023/06/02 04:24:46;;;;;;;;;;;24.80;50.20;;;;;;5096988;27;43013;-84
2023/06/02 04:27:14;;;;;;;;;;;24.80;50.70;;;;;;5100207;27;43441;-93
2023/06/02 04:29:40;;;;;;;;;;;24.80;50.30;;;;;;5092127;27;42813;-83
2023/06/02 04:32:06;;;;;;;;;;;24.80;50.80;;;;;;5099352;27;43420;-75
2023/06/02 04:34:31;;;;;;;;;;;24.80;50.70;;;;;;5083530;27;42986;-85
2023/06/02 04:36:57;;;;;;;;;;;24.80;50.70;;;;;;5097885;27;42756;-95
2023/06/02 04:39:23;;;;;;;;;;;24.80;50.60;;;;;;5108131;27;42927;-92
2023/06/02 04:41:49;;;;;;;;;;;24.80;51.10;;;;;;5109145;27;42885;-89
2023/06/02 04:44:16;;;;;;;;;;;24.80;50.60;;;;;;5076260;27;43110;-94
2023/06/02 04:46:42;;;;;;;;;;;24.90;50.10;;;;;;5107654;27;42843;-87
2023/06/02 04:49:09;;;;;;;;;;;24.90;50.60;;;;;;5085048;27;43057;-88
2023/06/02 04:51:35;;;;;;;;;;;24.90;50.70;;;;;;5087021;27;43537;-91
2023/06/02 04:54:00;;;;;;;;;;;24.90;50.70;;;;;;5090521;27;43022;-83
2023/06/02 04:56:26;;;;;;;;;;;24.90;50.30;;;;;;5097880;27;43936;-94
2023/06/02 04:58:52;;;;;;;;;;;24.90;50.50;;;;;;5109179;27;42965;-85
2023/06/02 05:01:18;;;;;;;;;;;24.90;50.50;;;;;;5087746;27;44630;-86
2023/06/02 05:03:44;;;;;;;;;;;24.90;50.50;;;;;;5121798;27;42881;-87
2023/06/02 05:06:09;;;;;;;;;;;24.90;51.00;;;;;;5109664;27;42719;-90
2023/06/02 05:08:35;;;;;;;;;;;24.90;50.50;;;;;;5105335;27;43005;-90
2023/06/02 05:11:02;;;;;;;;;;;24.90;50.50;;;;;;5086934;27;42932;-85
2023/06/02 05:13:27;;;;;;;;;;;24.90;50.80;;;;;;5086153;27;43017;-92
2023/06/02 05:15:53;;;;;;;;;;;24.90;50.40;;;;;;5094064;27;43800;-92
2023/06/02 05:18:18;;;;;;;;;;;24.90;51.00;;;;;;5088226;27;42930;-93
2023/06/02 05:20:44;;;;;;;;;;;24.90;50.60;;;;;;5088603;27;43115;-91
2023/06/02 05:23:09;;;;;;;;;;;24.90;51.10;;;;;;5097225;27;43001;-85
2023/06/02 05:25:35;;;;;;;;;;;25.00;51.20;;;;;;5092794;27;44040;-88
2023/06/02 05:28:00;;;;;;;;;;;25.00;50.60;;;;;;5094203;27;42852;-88
2023/06/02 05:30:26;;;;;;;;;;;25.00;51.10;;;;;;5090259;27;43558;-91
2023/06/02 05:32:51;;;;;;;;;;;25.00;51.00;;;;;;5098581;27;43125;-95
2023/06/02 05:35:17;;;;;;;;;;;25.00;50.90;;;;;;5096513;27;42748;-94
2023/06/02 05:37:43;;;;;;;;;;;25.00;51.00;;;;;;5085117;27;42827;-93
2023/06/02 05:40:09;;;;;;;;;;;24.90;50.50;;;;;;5098335;27;43147;-80
2023/06/02 05:42:35;;;;;;;;;;;25.00;51.00;;;;;;5089305;27;42887;-94
2023/06/02 05:45:02;;;;;;;;;;;25.00;50.90;;;;;;5095254;27;42899;-96
2023/06/02 05:47:30;;;;;;;;;;;25.00;50.80;;;;;;5088065;27;42927;-95
2023/06/02 05:49:55;;;;;;;;;;;25.00;50.30;;;;;;5090875;27;43790;-80
2023/06/02 05:52:21;;;;;;;;;;;25.10;50.80;;;;;;5099457;27;42860;-95
2023/06/02 05:54:46;;;;;;;;;;;25.00;50.20;;;;;;5094900;27;43569;-94
2023/06/02 05:57:12;;;;;;;;;;;25.10;50.20;;;;;;5093793;27;42847;-79
2023/06/02 05:59:37;;;;;;;;;;;25.10;50.20;;;;;;5068402;27;44788;-95
2023/06/02 06:02:03;;;;;;;;;;;25.10;50.60;;;;;;5089381;27;42940;-79
2023/06/02 06:04:29;;;;;;;;;;;25.10;50.60;;;;;;5104301;27;42925;-96
2023/06/02 06:06:54;;;;;;;;;;;25.00;50.10;;;;;;5077319;27;42921;-96
2023/06/02 06:09:20;;;;;;;;;;;25.10;50.60;;;;;;5097067;27;43544;-90
2023/06/02 06:11:45;;;;;;;;;;;25.10;50.10;;;;;;5084721;27;42874;-91
2023/06/02 06:14:11;;;;;;;;;;;25.10;50.50;;;;;;5100537;27;43139;-95
2023/06/02 06:16:37;;;;;;;;;;;25.10;50.00;;;;;;5090733;27;42847;-95
2023/06/02 06:19:02;;;;;;;;;;;25.10;50.40;;;;;;5086053;27;44518;-95
2023/06/02 06:21:28;;;;;;;;;;;25.10;50.40;;;;;;5089852;27;42773;-81
2023/06/02 06:23:54;;;;;;;;;;;25.10;49.90;;;;;;5092858;27;43452;-92
2023/06/02 06:26:20;;;;;;;;;;;25.10;49.80;;;;;;5086497;27;42957;-84
2023/06/02 06:28:45;;;;;;;;;;;25.10;50.20;;;;;;5104750;27;42891;-95
2023/06/02 06:31:11;;;;;;;;;;;25.10;50.20;;;;;;5089143;27;42907;-91
2023/06/02 06:33:36;;;;;;;;;;;25.10;49.80;;;;;;5084258;27;43814;-93
2023/06/02 06:36:02;;;;;;;;;;;25.10;50.20;;;;;;5089032;27;42957;-84
2023/06/02 06:38:27;;;;;;;;;;;25.10;50.20;;;;;;5101721;27;43713;-87
2023/06/02 06:40:53;;;;;;;;;;;25.10;49.70;;;;;;5087294;27;42825;-88
2023/06/02 06:43:18;;;;;;;;;;;25.10;50.20;;;;;;5078698;27;43638;-89
2023/06/02 06:45:44;;;;;;;;;;;25.10;49.80;;;;;;5092835;27;43168;-89
2023/06/02 06:48:10;;;;;;;;;;;27.70;51.90;;;;;;5084975;27;42996;-86
2023/06/02 06:50:36;;;;;;;;;;;25.10;50.20;;;;;;5093601;27;42957;-89
2023/06/02 06:53:03;;;;;;;;;;;25.10;49.80;;;;;;5094957;27;42899;-89
2023/06/02 06:55:29;;;;;;;;;;;25.10;49.80;;;;;;5093729;27;43015;-89
2023/06/02 06:57:55;;;;;;;;;;;25.10;49.90;;;;;;5071161;28;44499;-89
2023/06/02 07:00:20;;;;;;;;;;;25.20;49.80;;;;;;5087160;27;43001;-91
2023/06/02 07:02:48;;;;;;;;;;;25.10;49.80;;;;;;5089529;27;43220;-87
2023/06/02 07:05:16;;;;;;;;;;;25.10;49.70;;;;;;5095713;27;43302;-87
2023/06/02 07:07:43;;;;;;;;;;;25.20;49.70;;;;;;5092494;27;42996;-87
2023/06/02 07:10:08;;;;;;;;;;;25.20;49.70;;;;;;5099139;27;43229;-89
2023/06/02 07:12:34;;;;;;;;;;;25.20;49.70;;;;;;5097035;27;43432;-89
2023/06/02 07:15:00;;;;;;;;;;;25.20;49.80;;;;;;5092235;27;43038;-77
2023/06/02 07:17:25;;;;;;;;;;;25.20;49.80;;;;;;5094416;27;43572;-81
2023/06/02 07:19:51;;;;;;;;;;;25.20;49.70;;;;;;5091328;27;43112;-90
2023/06/02 07:22:16;;;;;;;;;;;25.20;49.70;;;;;;5093477;27;43628;-87
2023/06/02 07:24:43;;;;;;;;;;;25.00;49.60;;;;;;5096489;27;43217;-88
2023/06/02 07:27:09;;;;;;;;;;;25.20;49.60;;;;;;5094254;27;42989;-89
2023/06/02 07:29:34;;;;;;;;;;;25.20;49.50;;;;;;5100116;27;43007;-85
2023/06/02 07:32:00;;;;;;;;;;;25.30;49.60;;;;;;5101294;27;43092;-81
2023/06/02 07:34:25;;;;;;;;;;;25.20;49.30;;;;;;5074778;27;43058;-84
2023/06/02 07:36:52;;;;;;;;;;;25.10;49.30;;;;;;5105649;27;44597;-82
2023/06/02 07:39:18;;;;;;;;;;;25.10;49.20;;;;;;5100146;27;43154;-80
2023/06/02 07:41:43;;;;;;;;;;;25.20;49.30;;;;;;5102750;27;43525;-80
2023/06/02 07:44:09;;;;;;;;;;;25.20;49.30;;;;;;5104985;27;43214;-80
2023/06/02 07:46:35;;;;;;;;;;;25.20;49.30;;;;;;5090973;27;42855;-80
2023/06/02 07:49:01;;;;;;;;;;;25.30;49.40;;;;;;5085293;27;43019;-81
2023/06/02 07:51:27;;;;;;;;;;;25.20;49.30;;;;;;5087273;27;43596;-81
2023/06/02 07:53:52;;;;;;;;;;;25.20;49.30;;;;;;5088626;27;43175;-84
2023/06/02 07:56:18;;;;;;;;;;;25.30;49.40;;;;;;5101315;27;43065;-79
2023/06/02 07:58:47;;;;;;;;;;;25.30;49.40;;;;;;5092919;27;43482;-82
2023/06/02 08:01:12;;;;;;;;;;;25.30;49.80;;;;;;5086173;27;43040;-80
2023/06/02 08:03:39;;;;;;;;;;;25.30;49.80;;;;;;5091874;27;42889;-81
2023/06/02 08:06:04;;;;;;;;;;;25.30;49.80;;;;;;5097293;27;44517;-83
2023/06/02 08:08:30;;;;;;;;;;;25.30;49.80;;;;;;5099735;27;43068;-84
2023/06/02 08:10:57;;;;;;;;;;;25.30;49.40;;;;;;5085924;27;42970;-82
2023/06/02 08:13:22;;;;;;;;;;;25.30;49.90;;;;;;5091607;27;42986;-83
2023/06/02 08:15:48;;;;;;;;;;;25.30;49.90;;;;;;5106011;27;42988;-83
2023/06/02 08:18:14;;;;;;;;;;;25.30;49.40;;;;;;5093487;27;43254;-80
2023/06/02 08:20:44;;;;;;;;;;;25.30;49.40;;;;;;5098836;27;43721;-80
2023/06/02 08:23:10;;;;;;;;;;;25.30;49.90;;;;;;5100869;27;42812;-80
2023/06/02 08:25:38;;;;;;;;;;;25.30;49.40;;;;;;5094912;27;43450;-80
2023/06/02 08:28:07;;;;;;;;;;;25.30;49.40;;;;;;5075581;27;42986;-81
2023/06/02 08:30:35;;;;;;;;;;;25.30;49.80;;;;;;5094268;27;42961;-79
2023/06/02 08:33:02;;;;;;;;;;;25.30;49.40;;;;;;5103889;27;42927;-80
2023/06/02 08:35:32;;;;;;;;;;;25.30;49.90;;;;;;5092677;27;43702;-80
2023/06/02 08:37:58;;;;;;;;;;;25.30;49.90;;;;;;5102060;27;43009;-78
2023/06/02 08:40:25;;;;;;;;;;;25.30;49.80;;;;;;5099514;27;43596;-80
2023/06/02 08:42:51;;;;;;;;;;;25.30;49.90;;;;;;5099698;27;43561;-79
2023/06/02 08:45:20;;;;;;;;;;;25.30;49.90;;;;;;5106157;27;42820;-81
2023/06/02 08:47:48;;;;;;;;;;;25.30;49.90;;;;;;5096227;27;43255;-79
2023/06/02 08:50:14;;;;;;;;;;;25.30;49.40;;;;;;5072253;28;45345;-80
2023/06/02 08:52:42;;;;;;;;;;;25.30;49.40;;;;;;5076083;27;43104;-79
2023/06/02 08:55:07;;;;;;;;;;;25.40;49.40;;;;;;5092155;27;43547;-83
2023/06/02 08:57:33;;;;;;;;;;;25.40;49.40;;;;;;5093989;27;42906;-84
2023/06/02 08:59:58;;;;;;;;;;;25.40;49.40;;;;;;5090676;27;43051;-84
2023/06/02 09:02:24;;;;;;;;;;;25.40;50.00;;;;;;5098370;27;43186;-84
2023/06/02 09:04:51;;;;;;;;;;;25.40;49.40;;;;;;5099714;27;44469;-84
2023/06/02 09:07:19;;;;;;;;;;;25.40;49.50;;;;;;5097179;27;43061;-84
2023/06/02 09:09:46;;;;;;;;;;;25.40;50.00;;;;;;5090318;27;42969;-83
2023/06/02 09:12:11;;;;;;;;;;;25.40;49.40;;;;;;5100298;27;43477;-84
2023/06/02 09:14:37;;;;;;;;;;;25.40;49.80;;;;;;5102152;27;43415;-83
2023/06/02 09:17:03;;;;;;;;;;;25.40;49.80;;;;;;5088054;27;43243;-84
2023/06/02 09:19:47;;;;;;;;;;;25.50;49.70;;;;;;5098588;27;43596;-84
2023/06/02 09:22:13;;;;;;;;;;;25.50;49.30;;;;;;5088284;27;43065;-83
2023/06/02 09:24:38;;;;;;;;;;;25.40;49.80;;;;;;5092818;27;43346;-84
2023/06/02 09:27:04;;;;;;;;;;;25.50;49.90;;;;;;5070712;27;42998;-84
2023/06/02 09:29:29;;;;;;;;;;;25.40;49.80;;;;;;5090403;27;43062;-82
2023/06/02 09:31:56;;;;;;;;;;;25.40;49.20;;;;;;5093887;27;43127;-83
2023/06/02 09:34:24;;;;;;;;;;;25.50;49.80;;;;;;5076891;27;43644;-83
2023/06/02 09:36:51;;;;;;;;;;;25.40;49.10;;;;;;5088067;27;43186;-82
2023/06/02 09:39:33;;;;;;;;;;;25.50;49.10;;;;;;5093750;27;43454;-84
2023/06/02 09:41:58;;;;;;;;;;;25.50;49.50;;;;;;5089905;27;42988;-83
2023/06/02 09:44:25;;;;;;;;;;;25.50;49.60;;;;;;5095767;27;42826;-84
2023/06/02 09:46:50;;;;;;;;;;;25.50;49.10;;;;;;5088634;27;42875;-84
2023/06/02 09:49:16;;;;;;;;;;;25.50;48.90;;;;;;5069048;27;45219;-84
2023/06/02 09:51:41;;;;;;;;;;;25.50;48.90;;;;;;5089632;27;42898;-83
2023/06/02 09:54:08;;;;;;;;;;;25.60;49.40;;;;;;5092811;27;43704;-86
2023/06/02 09:56:36;;;;;;;;;;;25.50;48.80;;;;;;5092815;27;43163;-84
2023/06/02 09:59:03;;;;;;;;;;;25.50;49.40;;;;;;5090421;27;44514;-78
2023/06/02 10:01:28;;;;;;;;;;;25.50;49.30;;;;;;5091941;27;43150;-79
2023/06/02 10:03:54;;;;;;;;;;;25.60;49.30;;;;;;5096273;27;43048;-77
2023/06/02 10:06:26;;;;;;;;;;;25.60;48.80;;;;;;5086907;27;42963;-79
2023/06/02 10:09:01;;;;;;;;;;;25.60;49.20;;;;;;5094699;27;43101;-82
2023/06/02 10:11:26;;;;;;;;;;;25.60;49.20;;;;;;5092129;27;43009;-83
2023/06/02 10:14:18;;;;;;;;;;;25.50;48.60;;;;;;5096090;27;43038;-82
2023/06/02 10:16:47;;;;;;;;;;;25.60;48.70;;;;;;5061106;27;43577;-83
2023/06/02 10:19:22;;;;;;;;;;;25.60;49.10;;;;;;5094301;27;42871;-83
2023/06/02 10:22:07;;;;;;;;;;;25.60;49.10;;;;;;5067571;27;43057;-82
2023/06/02 10:24:35;;;;;;;;;;;25.60;49.10;;;;;;5100877;27;44464;-81
2023/06/02 10:27:11;;;;;;;;;;;25.60;49.10;;;;;;5096222;27;43009;-84
2023/06/02 10:29:37;;;;;;;;;;;25.60;49.10;;;;;;5100560;27;42980;-83
2023/06/02 10:32:22;;;;;;;;;;;25.60;49.10;;;;;;5098199;27;43032;-82
2023/06/02 10:34:48;;;;;;;;;;;25.60;49.10;;;;;;5101402;27;43386;-83
2023/06/02 10:37:14;;;;;;;;;;;25.60;49.10;;;;;;5103589;27;43000;-83
2023/06/02 10:39:40;;;;;;;;;;;25.60;49.20;;;;;;5104052;27;43445;-82
2023/06/02 10:42:09;;;;;;;;;;;25.60;48.70;;;;;;5096519;27;43068;-83
2023/06/02 10:44:35;;;;;;;;;;;25.60;48.70;;;;;;5097917;27;43211;-83
2023/06/02 10:47:19;;;;;;;;;;;25.60;48.70;;;;;;5091490;27;43019;-83
2023/06/02 10:49:55;;;;;;;;;;;25.60;49.10;;;;;;5073093;27;44121;-82
2023/06/02 10:52:21;;;;;;;;;;;25.60;48.70;;;;;;5078854;27;43749;-82
2023/06/02 10:55:10;;;;;;;;;;;25.60;49.20;;;;;;5093605;27;43578;-82
2023/06/02 10:57:53;;;;;;;;;;;25.60;48.60;;;;;;5042034;27;43150;-82
2023/06/02 11:00:40;;;;;;;;;;;25.60;49.00;;;;;;5088276;27;42946;-83
2023/06/02 11:03:08;;;;;;;;;;;25.60;48.60;;;;;;5087779;27;42989;-82
2023/06/02 11:05:34;;;;;;;;;;;25.60;49.00;;;;;;5093475;27;42955;-81
2023/06/02 11:08:15;;;;;;;;;;;25.60;48.60;;;;;;5104772;27;42845;-82
2023/06/02 11:10:42;;;;;;;;;;;25.70;49.00;;;;;;5086939;27;43455;-84
2023/06/02 11:13:08;;;;;;;;;;;25.60;48.50;;;;;;5097008;27;43265;-78
2023/06/02 11:15:34;;;;;;;;;;;25.60;48.90;;;;;;5097456;27;43017;-79
2023/06/02 11:18:01;;;;;;;;;;;25.60;48.40;;;;;;5104743;27;43010;-79
2023/06/02 11:20:36;;;;;;;;;;;25.60;48.90;;;;;;5074276;27;44494;-75
2023/06/02 11:23:03;;;;;;;;;;;25.60;48.40;;;;;;5098122;27;43084;-79
2023/06/02 11:25:28;;;;;;;;;;;25.60;48.90;;;;;;5098559;27;43508;-79
2023/06/02 11:27:54;;;;;;;;;;;25.60;48.40;;;;;;5091385;27;42915;-80
2023/06/02 11:30:19;;;;;;;;;;;25.70;48.90;;;;;;5096765;27;42935;-79
2023/06/02 11:32:47;;;;;;;;;;;25.60;48.40;;;;;;5094492;27;42964;-79
2023/06/02 11:35:13;;;;;;;;;;;25.60;48.40;;;;;;5102224;27;43518;-80
2023/06/02 11:37:40;;;;;;;;;;;25.70;48.90;;;;;;5091416;27;42854;-80
2023/06/02 11:40:09;;;;;;;;;;;25.60;48.80;;;;;;5097849;27;43077;-79
2023/06/02 11:42:38;;;;;;;;;;;25.70;48.40;;;;;;5090999;27;42870;-79
2023/06/02 11:45:05;;;;;;;;;;;25.60;48.80;;;;;;5095926;27;43034;-78
2023/06/02 11:47:31;;;;;;;;;;;25.70;48.80;;;;;;5095821;27;43547;-78
2023/06/02 11:49:56;;;;;;;;;;;25.60;48.30;;;;;;5095431;27;42906;-77
2023/06/02 11:52:23;;;;;;;;;;;24.00;47.40;;;;;;5096490;27;43036;-80
2023/06/02 11:54:52;;;;;;;;;;;25.70;48.40;;;;;;5082174;27;43296;-80
2023/06/02 11:57:24;;;;;;;;;;;25.70;48.40;;;;;;5093043;27;42963;-79
2023/06/02 12:00:00;;;;;;;;;;;25.70;48.40;;;;;;5103520;27;42842;-80
2023/06/02 12:02:26;;;;;;;;;;;25.70;48.40;;;;;;5106335;27;43007;-80
2023/06/02 12:04:51;;;;;;;;;;;25.70;49.00;;;;;;5099891;27;43042;-77
2023/06/02 12:07:17;;;;;;;;;;;25.70;48.40;;;;;;5095989;27;43098;-78
2023/06/02 12:09:47;;;;;;;;;;;25.70;48.40;;;;;;5085741;27;43211;-80
2023/06/02 12:12:13;;;;;;;;;;;25.70;48.40;;;;;;5092364;27;43202;-80
2023/06/02 12:14:38;;;;;;;;;;;25.60;48.40;;;;;;5090033;27;44001;-80
2023/06/02 12:17:07;;;;;;;;;;;25.70;48.50;;;;;;5067961;28;43212;-81
2023/06/02 12:19:32;;;;;;;;;;;25.70;49.00;;;;;;5085772;27;43029;-79
2023/06/02 12:22:05;;;;;;;;;;;25.70;49.00;;;;;;5099866;27;43086;-75
2023/06/02 12:24:33;;;;;;;;;;;25.70;48.60;;;;;;5095633;27;43115;-78
2023/06/02 12:26:59;;;;;;;;;;;25.70;49.10;;;;;;5089491;27;42876;-80
2023/06/02 12:29:25;;;;;;;;;;;25.70;49.10;;;;;;5095214;27;43788;-81
2023/06/02 12:31:57;;;;;;;;;;;25.70;48.60;;;;;;5099609;27;42907;-80
2023/06/02 12:34:22;;;;;;;;;;;25.70;49.10;;;;;;5100900;27;42952;-77
2023/06/02 12:36:48;;;;;;;;;;;26.00;49.40;;;;;;5100405;27;43356;-80
2023/06/02 12:39:14;;;;;;;;;;;25.70;49.10;;;;;;5100862;27;43262;-78
2023/06/02 12:41:39;;;;;;;;;;;25.70;48.60;;;;;;5084904;27;43013;-79
2023/06/02 12:44:05;;;;;;;;;;;25.70;49.10;;;;;;5098159;27;43700;-81
2023/06/02 12:46:30;;;;;;;;;;;25.70;49.00;;;;;;5090975;27;42908;-81
2023/06/02 12:48:58;;;;;;;;;;;25.70;49.00;;;;;;5101561;27;43848;-78
2023/06/02 12:51:23;;;;;;;;;;;25.70;48.50;;;;;;5096910;27;42913;-81
2023/06/02 12:53:49;;;;;;;;;;;25.70;48.50;;;;;;5096569;27;43415;-80
2023/06/02 12:56:15;;;;;;;;;;;25.70;48.50;;;;;;5094136;27;43057;-77
2023/06/02 12:58:40;;;;;;;;;;;25.70;49.40;;;;;;5089940;27;43805;-80
2023/06/02 13:01:06;;;;;;;;;;;25.70;48.40;;;;;;5105104;27;43382;-80
2023/06/02 13:03:32;;;;;;;;;;;25.70;48.50;;;;;;5072983;27;44475;-82
2023/06/02 13:06:01;;;;;;;;;;;25.70;48.90;;;;;;5103302;27;42973;-79
2023/06/02 13:08:27;;;;;;;;;;;25.70;48.90;;;;;;5097080;27;42938;-81
2023/06/02 13:10:54;;;;;;;;;;;25.70;49.00;;;;;;5093471;27;42938;-80
2023/06/02 13:13:20;;;;;;;;;;;25.70;49.00;;;;;;5100586;27;43708;-81
2023/06/02 13:15:46;;;;;;;;;;;25.80;48.70;;;;;;5101787;27;43023;-80
2023/06/02 13:18:11;;;;;;;;;;;30.10;51.90;;;;;;5094745;27;43734;-80
2023/06/02 13:20:38;;;;;;;;;;;25.80;49.20;;;;;;5083957;27;43030;-80
2023/06/02 13:23:04;;;;;;;;;;;25.80;49.10;;;;;;5085928;27;43658;-80
2023/06/02 13:25:29;;;;;;;;;;;25.80;49.20;;;;;;5084473;27;43169;-79
2023/06/02 13:27:55;;;;;;;;;;;25.70;48.70;;;;;;5085519;27;43016;-79
2023/06/02 13:30:21;;;;;;;;;;;25.70;48.70;;;;;;5096253;27;43267;-79
2023/06/02 13:32:47;;;;;;;;;;;25.80;48.90;;;;;;5098947;27;43093;-81
2023/06/02 13:35:12;;;;;;;;;;;25.60;48.70;;;;;;5078234;28;42772;-80
2023/06/02 13:37:38;;;;;;;;;;;25.80;49.40;;;;;;5095390;27;42882;-79
2023/06/02 13:40:04;;;;;;;;;;;25.70;48.80;;;;;;5084212;27;43262;-80
2023/06/02 13:42:29;;;;;;;;;;;25.80;49.40;;;;;;5085571;27;44142;-79
2023/06/02 13:44:55;;;;;;;;;;;25.80;48.90;;;;;;5098586;27;43048;-78
2023/06/02 13:47:20;;;;;;;;;;;25.80;48.90;;;;;;5090614;27;42955;-79
2023/06/02 13:49:46;;;;;;;;;;;25.80;48.90;;;;;;5104607;27;42861;-80
2023/06/02 13:52:11;;;;;;;;;;;25.70;48.80;;;;;;5099474;27;43617;-80
2023/06/02 13:54:37;;;;;;;;;;;25.80;49.40;;;;;;5099164;27;43126;-79
2023/06/02 13:57:03;;;;;;;;;;;25.80;48.90;;;;;;5092004;27;43461;-80
2023/06/02 13:59:30;;;;;;;;;;;25.80;49.40;;;;;;5103534;27;42980;-79
2023/06/02 14:01:56;;;;;;;;;;;25.80;48.90;;;;;;5085053;27;45237;-80
2023/06/02 14:04:21;;;;;;;;;;;25.80;49.00;;;;;;5088505;27;42955;-76
2023/06/02 14:06:47;;;;;;;;;;;25.80;49.40;;;;;;5088662;27;43196;-80
2023/06/02 14:09:12;;;;;;;;;;;25.80;49.40;;;;;;5102044;27;42902;-78
2023/06/02 14:11:38;;;;;;;;;;;25.80;48.90;;;;;;5101099;27;43523;-79
2023/06/02 14:14:07;;;;;;;;;;;25.60;48.80;;;;;;5095537;27;43117;-79